sensor_id;sensor_type;location;lat;lon;timestamp;pressure;altitude;pressure_sealevel;temperature;humidity
30714;BME280;17465;47.934;33.430;2022-07-29T00:01:27;100437.81;;;20.91;100.00
30714;BME280;17465;47.934;33.430;2022-07-29T00:03:58;100406.30;;;20.86;100.00
30714;BME280;17465;47.934;33.430;2022-07-29T00:06:29;100406.30;;;20.86;100.00
30714;BME280;17465;47.934;33.430;2022-07-29T00:08:59;100392.92;;;20.79;100.00
30714;BME280;17465;47.934;33.430;2022-07-29T00:11:30;100394.33;;;20.79;100.00
30714;BME280;17465;47.934;33.430;2022-07-29T00:14:00;100394.33;;;20.79;100.00
30714;BME280;17465;47.934;33.430;2022-07-29T00:16:32;100398.31;;;20.65;100.00
30714;BME280;17465;47.934;33.430;2022-07-29T00:19:03;100386.78;;;20.61;100.00
30714;BME280;17465;47.934;33.430;2022-07-29T00:21:36;100382.80;;;20.65;100.00
30714;BME280;17465;47.934;33.430;2022-07-29T00:24:07;100382.80;;;20.65;100.00
30714;BME280;17465;47.934;33.430;2022-07-29T00:26:38;100384.72;;;20.58;100.00
30714;BME280;17465;47.934;33.430;2022-07-29T00:29:09;100384.72;;;20.58;100.00
30714;BME280;17465;47.934;33.430;2022-07-29T00:31:41;100384.94;;;20.59;100.00
30714;BME280;17465;47.934;33.430;2022-07-29T00:34:11;100383.16;;;20.60;100.00
30714;BME280;17465;47.934;33.430;2022-07-29T00:36:43;100383.16;;;20.60;100.00
30714;BME280;17465;47.934;33.430;2022-07-29T00:39:13;100378.59;;;20.52;100.00
30714;BME280;17465;47.934;33.430;2022-07-29T00:41:43;100378.59;;;20.52;100.00
30714;BME280;17465;47.934;33.430;2022-07-29T00:44:15;100371.70;;;20.50;100.00
30714;BME280;17465;47.934;33.430;2022-07-29T00:46:46;100371.70;;;20.50;100.00
30714;BME280;17465;47.934;33.430;2022-07-29T00:49:17;100370.33;;;20.66;100.00
30714;BME280;17465;47.934;33.430;2022-07-29T00:51:48;100377.47;;;20.44;100.00
30714;BME280;17465;47.934;33.430;2022-07-29T00:54:19;100379.47;;;20.43;100.00
30714;BME280;17465;47.934;33.430;2022-07-29T00:56:50;100384.06;;;20.55;100.00
30714;BME280;17465;47.934;33.430;2022-07-29T00:59:20;100384.06;;;20.55;100.00
30714;BME280;17465;47.934;33.430;2022-07-29T01:01:51;100383.98;;;20.48;100.00
30714;BME280;17465;47.934;33.430;2022-07-29T01:04:23;100378.77;;;20.37;100.00
30714;BME280;17465;47.934;33.430;2022-07-29T01:06:56;100384.08;;;20.29;100.00
30714;BME280;17465;47.934;33.430;2022-07-29T01:09:27;100377.59;;;20.25;100.00
30714;BME280;17465;47.934;33.430;2022-07-29T01:12:01;100386.36;;;20.33;100.00
30714;BME280;17465;47.934;33.430;2022-07-29T01:14:32;100369.44;;;20.33;100.00
30714;BME280;17465;47.934;33.430;2022-07-29T01:17:12;100378.81;;;20.40;100.00
30714;BME280;17465;47.934;33.430;2022-07-29T01:19:59;100369.40;;;20.29;100.00
30714;BME280;17465;47.934;33.430;2022-07-29T01:34:05;100388.95;;;20.32;100.00
30714;BME280;17465;47.934;33.430;2022-07-29T01:36:46;100387.98;;;20.34;100.00
30714;BME280;17465;47.934;33.430;2022-07-29T01:39:37;100387.98;;;20.34;100.00
30714;BME280;17465;47.934;33.430;2022-07-29T01:42:12;100393.13;;;20.41;100.00
30714;BME280;17465;47.934;33.430;2022-07-29T01:48:13;100382.09;;;20.29;100.00
30714;BME280;17465;47.934;33.430;2022-07-29T01:50:17;100382.09;;;20.29;100.00
30714;BME280;17465;47.934;33.430;2022-07-29T01:52:56;100385.32;;;20.44;100.00
30714;BME280;17465;47.934;33.430;2022-07-29T01:55:34;100384.52;;;20.44;100.00
30714;BME280;17465;47.934;33.430;2022-07-29T01:58:01;100384.52;;;20.44;100.00
30714;BME280;17465;47.934;33.430;2022-07-29T02:00:34;100390.89;;;20.54;100.00
30714;BME280;17465;47.934;33.430;2022-07-29T02:03:09;100385.72;;;20.43;100.00
30714;BME280;17465;47.934;33.430;2022-07-29T02:05:48;100385.72;;;20.43;100.00
30714;BME280;17465;47.934;33.430;2022-07-29T02:08:19;100387.16;;;20.46;100.00
30714;BME280;17465;47.934;33.430;2022-07-29T02:10:51;100389.19;;;20.46;100.00
30714;BME280;17465;47.934;33.430;2022-07-29T02:13:27;100386.47;;;20.40;100.00
30714;BME280;17465;47.934;33.430;2022-07-29T02:16:01;100386.47;;;20.40;100.00
30714;BME280;17465;47.934;33.430;2022-07-29T02:18:33;100392.43;;;20.35;100.00
30714;BME280;17465;47.934;33.430;2022-07-29T02:21:04;100392.43;;;20.35;100.00
30714;BME280;17465;47.934;33.430;2022-07-29T02:23:38;100391.20;;;20.32;100.00
30714;BME280;17465;47.934;33.430;2022-07-29T02:26:10;100391.03;;;20.22;100.00
30714;BME280;17465;47.934;33.430;2022-07-29T02:28:43;100391.03;;;20.22;100.00
30714;BME280;17465;47.934;33.430;2022-07-29T02:31:18;100395.09;;;20.24;100.00
30714;BME280;17465;47.934;33.430;2022-07-29T02:33:50;100390.06;;;20.24;100.00
30714;BME280;17465;47.934;33.430;2022-07-29T02:36:23;100392.27;;;20.24;100.00
30714;BME280;17465;47.934;33.430;2022-07-29T02:38:55;100407.94;;;20.22;100.00
30714;BME280;17465;47.934;33.430;2022-07-29T02:41:35;100407.94;;;20.22;100.00
30714;BME280;17465;47.934;33.430;2022-07-29T02:44:14;100412.00;;;20.24;100.00
30714;BME280;17465;47.934;33.430;2022-07-29T02:46:53;100412.70;;;20.31;100.00
30714;BME280;17465;47.934;33.430;2022-07-29T02:50:02;100398.07;;;20.35;100.00
30714;BME280;17465;47.934;33.430;2022-07-29T02:52:54;100398.07;;;20.35;100.00
30714;BME280;17465;47.934;33.430;2022-07-29T02:55:34;100405.88;;;20.32;100.00
30714;BME280;17465;47.934;33.430;2022-07-29T02:58:29;100402.13;;;20.24;100.00
30714;BME280;17465;47.934;33.430;2022-07-29T03:01:08;100406.42;;;20.41;100.00
30714;BME280;17465;47.934;33.430;2022-07-29T03:03:37;100411.67;;;20.42;100.00
30714;BME280;17465;47.934;33.430;2022-07-29T03:06:11;100415.58;;;20.47;100.00
30714;BME280;17465;47.934;33.430;2022-07-29T03:08:45;100417.65;;;20.50;100.00
30714;BME280;17465;47.934;33.430;2022-07-29T03:11:17;100417.65;;;20.50;100.00
30714;BME280;17465;47.934;33.430;2022-07-29T03:13:51;100423.02;;;20.46;100.00
30714;BME280;17465;47.934;33.430;2022-07-29T03:16:25;100423.02;;;20.46;100.00
30714;BME280;17465;47.934;33.430;2022-07-29T03:18:56;100421.48;;;20.52;100.00
30714;BME280;17465;47.934;33.430;2022-07-29T03:21:27;100420.80;;;20.58;100.00
30714;BME280;17465;47.934;33.430;2022-07-29T03:23:57;100428.28;;;20.60;100.00
30714;BME280;17465;47.934;33.430;2022-07-29T03:26:29;100433.09;;;20.60;100.00
30714;BME280;17465;47.934;33.430;2022-07-29T03:29:01;100433.09;;;20.60;100.00
30714;BME280;17465;47.934;33.430;2022-07-29T03:31:34;100426.85;;;20.73;100.00
30714;BME280;17465;47.934;33.430;2022-07-29T03:34:06;100426.85;;;20.73;100.00
30714;BME280;17465;47.934;33.430;2022-07-29T03:36:36;100425.27;;;20.76;100.00
30714;BME280;17465;47.934;33.430;2022-07-29T03:39:09;100428.48;;;20.87;100.00
30714;BME280;17465;47.934;33.430;2022-07-29T03:41:42;100424.48;;;21.05;100.00
30714;BME280;17465;47.934;33.430;2022-07-29T03:44:16;100424.48;;;21.05;100.00
30714;BME280;17465;47.934;33.430;2022-07-29T03:46:49;100429.66;;;20.99;100.00
30714;BME280;17465;47.934;33.430;2022-07-29T03:49:22;100420.87;;;21.04;100.00
30714;BME280;17465;47.934;33.430;2022-07-29T03:51:55;100422.48;;;21.22;100.00
30714;BME280;17465;47.934;33.430;2022-07-29T03:54:31;100422.48;;;21.22;100.00
30714;BME280;17465;47.934;33.430;2022-07-29T03:56:59;100418.58;;;21.17;100.00
30714;BME280;17465;47.934;33.430;2022-07-29T03:59:32;100434.10;;;21.17;100.00
30714;BME280;17465;47.934;33.430;2022-07-29T04:02:05;100439.63;;;21.23;100.00
30714;BME280;17465;47.934;33.430;2022-07-29T04:04:36;100435.70;;;21.14;100.00
30714;BME280;17465;47.934;33.430;2022-07-29T04:07:06;100435.70;;;21.14;100.00
30714;BME280;17465;47.934;33.430;2022-07-29T04:09:37;100451.37;;;21.41;100.00
30714;BME280;17465;47.934;33.430;2022-07-29T04:12:09;100452.19;;;21.58;100.00
30714;BME280;17465;47.934;33.430;2022-07-29T04:14:40;100447.94;;;21.74;100.00
30714;BME280;17465;47.934;33.430;2022-07-29T04:17:11;100444.81;;;21.66;100.00
30714;BME280;17465;47.934;33.430;2022-07-29T04:19:42;100452.09;;;21.87;100.00
30714;BME280;17465;47.934;33.430;2022-07-29T04:22:13;100452.09;;;21.87;100.00
30714;BME280;17465;47.934;33.430;2022-07-29T04:24:44;100460.52;;;21.80;100.00
30714;BME280;17465;47.934;33.430;2022-07-29T04:27:15;100457.00;;;21.94;100.00
30714;BME280;17465;47.934;33.430;2022-07-29T04:29:46;100449.47;;;22.08;100.00
30714;BME280;17465;47.934;33.430;2022-07-29T04:32:19;100460.12;;;22.02;100.00
30714;BME280;17465;47.934;33.430;2022-07-29T04:34:50;100466.30;;;22.14;100.00
30714;BME280;17465;47.934;33.430;2022-07-29T04:37:21;100459.50;;;22.42;100.00
30714;BME280;17465;47.934;33.430;2022-07-29T04:39:51;100459.50;;;22.42;100.00
30714;BME280;17465;47.934;33.430;2022-07-29T04:42:22;100463.00;;;22.29;100.00
30714;BME280;17465;47.934;33.430;2022-07-29T04:44:54;100463.00;;;22.29;100.00
30714;BME280;17465;47.934;33.430;2022-07-29T04:47:24;100461.52;;;22.22;98.05
30714;BME280;17465;47.934;33.430;2022-07-29T04:49:55;100463.37;;;22.27;97.37
30714;BME280;17465;47.934;33.430;2022-07-29T04:52:25;100463.37;;;22.27;97.37
30714;BME280;17465;47.934;33.430;2022-07-29T04:54:57;100467.37;;;22.66;100.00
30714;BME280;17465;47.934;33.430;2022-07-29T04:57:28;100468.92;;;22.87;95.04
30714;BME280;17465;47.934;33.430;2022-07-29T04:59:59;100468.92;;;22.87;95.04
30714;BME280;17465;47.934;33.430;2022-07-29T05:02:30;100461.69;;;22.93;96.60
30714;BME280;17465;47.934;33.430;2022-07-29T05:05:01;100459.02;;;23.21;92.56
30714;BME280;17465;47.934;33.430;2022-07-29T05:07:33;100455.55;;;23.11;95.04
30714;BME280;17465;47.934;33.430;2022-07-29T05:10:08;100457.58;;;23.14;92.60
30714;BME280;17465;47.934;33.430;2022-07-29T05:12:39;100457.58;;;23.14;92.60
30714;BME280;17465;47.934;33.430;2022-07-29T05:15:10;100460.00;;;23.15;91.20
30714;BME280;17465;47.934;33.430;2022-07-29T05:17:41;100455.75;;;23.12;90.99
30714;BME280;17465;47.934;33.430;2022-07-29T05:20:41;100460.13;;;23.43;92.81
30714;BME280;17465;47.934;33.430;2022-07-29T05:23:06;100456.51;;;23.46;90.53
30714;BME280;17465;47.934;33.430;2022-07-29T05:25:37;100456.51;;;23.46;90.53
30714;BME280;17465;47.934;33.430;2022-07-29T05:28:10;100460.59;;;23.62;92.27
30714;BME280;17465;47.934;33.430;2022-07-29T05:30:41;100459.97;;;23.56;89.84
30714;BME280;17465;47.934;33.430;2022-07-29T05:33:12;100462.30;;;23.77;91.73
30714;BME280;17465;47.934;33.430;2022-07-29T05:35:44;100462.30;;;23.77;91.73
30714;BME280;17465;47.934;33.430;2022-07-29T05:38:15;100468.20;;;24.06;89.10
30714;BME280;17465;47.934;33.430;2022-07-29T05:40:45;100473.11;;;24.23;84.23
30714;BME280;17465;47.934;33.430;2022-07-29T05:43:19;100472.66;;;23.93;83.73
30714;BME280;17465;47.934;33.430;2022-07-29T05:45:51;100472.66;;;23.93;83.73
30714;BME280;17465;47.934;33.430;2022-07-29T05:48:22;100472.90;;;24.26;85.33
30714;BME280;17465;47.934;33.430;2022-07-29T05:50:53;100472.90;;;24.26;85.33
30714;BME280;17465;47.934;33.430;2022-07-29T05:53:26;100477.17;;;24.33;83.50
30714;BME280;17465;47.934;33.430;2022-07-29T05:56:02;100487.92;;;24.54;84.87
30714;BME280;17465;47.934;33.430;2022-07-29T05:58:32;100487.92;;;24.54;84.87
30714;BME280;17465;47.934;33.430;2022-07-29T06:01:03;100478.17;;;24.34;82.48
30714;BME280;17465;47.934;33.430;2022-07-29T06:03:34;100486.27;;;24.32;83.38
30714;BME280;17465;47.934;33.430;2022-07-29T06:06:08;100483.85;;;24.76;85.51
30714;BME280;17465;47.934;33.430;2022-07-29T06:08:38;100483.85;;;24.76;85.51
30714;BME280;17465;47.934;33.430;2022-07-29T06:11:23;100485.63;;;25.13;79.89
30714;BME280;17465;47.934;33.430;2022-07-29T06:13:53;100485.40;;;25.26;83.40
30714;BME280;17465;47.934;33.430;2022-07-29T06:16:25;100485.40;;;25.26;83.40
30714;BME280;17465;47.934;33.430;2022-07-29T06:18:57;100488.47;;;25.06;81.28
30714;BME280;17465;47.934;33.430;2022-07-29T06:21:28;100483.63;;;25.63;75.41
30714;BME280;17465;47.934;33.430;2022-07-29T06:24:02;100485.49;;;25.51;77.18
30714;BME280;17465;47.934;33.430;2022-07-29T06:26:41;100485.49;;;25.51;77.18
30714;BME280;17465;47.934;33.430;2022-07-29T06:29:10;100486.33;;;25.94;74.55
30714;BME280;17465;47.934;33.430;2022-07-29T06:31:40;100487.91;;;26.02;74.28
30714;BME280;17465;47.934;33.430;2022-07-29T06:34:14;100487.91;;;26.02;74.28
30714;BME280;17465;47.934;33.430;2022-07-29T06:36:46;100482.28;;;26.50;71.84
30714;BME280;17465;47.934;33.430;2022-07-29T06:39:22;100485.92;;;26.54;71.61
30714;BME280;17465;47.934;33.430;2022-07-29T06:41:54;100485.92;;;26.54;71.61
30714;BME280;17465;47.934;33.430;2022-07-29T06:44:24;100482.20;;;27.22;71.96
30714;BME280;17465;47.934;33.430;2022-07-29T07:16:22;100476.46;;;28.68;57.71
30714;BME280;17465;47.934;33.430;2022-07-29T07:18:53;100470.81;;;29.30;54.38
30714;BME280;17465;47.934;33.430;2022-07-29T07:21:24;100478.63;;;29.76;55.22
30714;BME280;17465;47.934;33.430;2022-07-29T07:23:57;100478.63;;;29.76;55.22
30714;BME280;17465;47.934;33.430;2022-07-29T07:26:29;100478.15;;;29.89;53.48
30714;BME280;17465;47.934;33.430;2022-07-29T07:29:01;100484.66;;;29.90;51.47
30714;BME280;17465;47.934;33.430;2022-07-29T07:31:32;100480.47;;;29.94;54.11
30714;BME280;17465;47.934;33.430;2022-07-29T07:34:03;100476.78;;;30.05;50.67
30714;BME280;17465;47.934;33.430;2022-07-29T07:36:33;100487.56;;;30.41;52.68
30714;BME280;17465;47.934;33.430;2022-07-29T07:39:04;100487.56;;;30.41;52.68
30714;BME280;17465;47.934;33.430;2022-07-29T07:41:37;100479.59;;;30.32;49.66
30714;BME280;17465;47.934;33.430;2022-07-29T07:44:18;100488.59;;;31.06;49.26
30714;BME280;17465;47.934;33.430;2022-07-29T07:47:15;100488.59;;;31.06;49.26
30714;BME280;17465;47.934;33.430;2022-07-29T07:49:51;100486.33;;;31.06;47.09
30714;BME280;17465;47.934;33.430;2022-07-29T07:52:20;100486.33;;;31.06;47.09
30714;BME280;17465;47.934;33.430;2022-07-29T07:54:58;100487.34;;;31.64;47.06
30714;BME280;17465;47.934;33.430;2022-07-29T07:57:31;100487.19;;;32.29;45.82
30714;BME280;17465;47.934;33.430;2022-07-29T08:00:05;100485.23;;;31.52;46.50
30714;BME280;17465;47.934;33.430;2022-07-29T08:02:37;100497.83;;;32.11;44.09
30714;BME280;17465;47.934;33.430;2022-07-29T08:05:08;100491.32;;;32.28;42.18
30714;BME280;17465;47.934;33.430;2022-07-29T08:07:43;100486.14;;;31.13;43.33
30714;BME280;17465;47.934;33.430;2022-07-29T08:10:16;100486.14;;;31.13;43.33
30714;BME280;17465;47.934;33.430;2022-07-29T08:12:47;100484.19;;;31.02;44.22
30714;BME280;17465;47.934;33.430;2022-07-29T08:15:20;100490.05;;;31.63;43.74
30714;BME280;17465;47.934;33.430;2022-07-29T08:17:52;100486.12;;;31.77;44.39
30714;BME280;17465;47.934;33.430;2022-07-29T08:20:24;100486.12;;;31.77;44.39
30714;BME280;17465;47.934;33.430;2022-07-29T08:23:05;100494.72;;;32.80;41.97
30714;BME280;17465;47.934;33.430;2022-07-29T08:25:38;100486.09;;;32.55;39.17
30714;BME280;17465;47.934;33.430;2022-07-29T08:28:09;100491.04;;;31.97;42.47
30714;BME280;17465;47.934;33.430;2022-07-29T08:30:47;100495.06;;;32.45;43.08
30714;BME280;17465;47.934;33.430;2022-07-29T08:33:15;100499.67;;;32.18;41.81
30714;BME280;17465;47.934;33.430;2022-07-29T08:35:58;100499.67;;;32.18;41.81
30714;BME280;17465;47.934;33.430;2022-07-29T08:38:26;100493.88;;;32.63;41.68
30714;BME280;17465;47.934;33.430;2022-07-29T08:40:59;100493.88;;;32.63;41.68
30714;BME280;17465;47.934;33.430;2022-07-29T08:43:39;100505.47;;;32.47;43.35
30714;BME280;17465;47.934;33.430;2022-07-29T08:46:03;100510.58;;;33.48;39.75
30714;BME280;17465;47.934;33.430;2022-07-29T08:48:34;100507.38;;;33.84;35.80
30714;BME280;17465;47.934;33.430;2022-07-29T08:51:07;100507.38;;;33.84;35.80
30714;BME280;17465;47.934;33.430;2022-07-29T08:53:43;100506.12;;;33.30;40.29
30714;BME280;17465;47.934;33.430;2022-07-29T08:56:20;100500.64;;;33.28;36.49
30714;BME280;17465;47.934;33.430;2022-07-29T08:58:47;100497.66;;;33.53;34.43
30714;BME280;17465;47.934;33.430;2022-07-29T09:01:24;100500.37;;;33.52;37.35
30714;BME280;17465;47.934;33.430;2022-07-29T09:03:59;100500.37;;;33.52;37.35
30714;BME280;17465;47.934;33.430;2022-07-29T09:06:34;100508.77;;;34.23;36.75
30714;BME280;17465;47.934;33.430;2022-07-29T09:09:08;100501.97;;;33.31;35.69
30714;BME280;17465;47.934;33.430;2022-07-29T09:11:41;100501.97;;;33.31;35.69
30714;BME280;17465;47.934;33.430;2022-07-29T09:14:14;100503.39;;;33.48;34.99
30714;BME280;17465;47.934;33.430;2022-07-29T09:16:53;100499.48;;;33.76;33.58
30714;BME280;17465;47.934;33.430;2022-07-29T09:19:37;100499.77;;;33.73;33.27
30714;BME280;17465;47.934;33.430;2022-07-29T09:22:12;100497.73;;;33.11;36.61
30714;BME280;17465;47.934;33.430;2022-07-29T09:24:46;100494.09;;;34.34;33.42
30714;BME280;17465;47.934;33.430;2022-07-29T09:27:22;100497.13;;;34.79;34.52
30714;BME280;17465;47.934;33.430;2022-07-29T09:29:59;100495.20;;;33.85;35.17
30714;BME280;17465;47.934;33.430;2022-07-29T09:32:34;100492.17;;;34.79;33.01
30714;BME280;17465;47.934;33.430;2022-07-29T09:35:25;100484.13;;;34.35;34.38
30714;BME280;17465;47.934;33.430;2022-07-29T09:37:56;100487.30;;;35.38;32.30
30714;BME280;17465;47.934;33.430;2022-07-29T09:40:28;100485.70;;;35.10;33.30
30714;BME280;17465;47.934;33.430;2022-07-29T09:43:00;100485.70;;;35.10;33.30
30714;BME280;17465;47.934;33.430;2022-07-29T09:45:33;100496.28;;;35.85;34.36
30714;BME280;17465;47.934;33.430;2022-07-29T09:48:16;100486.34;;;35.28;34.15
30714;BME280;17465;47.934;33.430;2022-07-29T09:50:47;100486.34;;;35.28;34.15
30714;BME280;17465;47.934;33.430;2022-07-29T09:53:37;100485.86;;;35.20;32.66
30714;BME280;17465;47.934;33.430;2022-07-29T09:56:08;100485.86;;;35.20;32.66
30714;BME280;17465;47.934;33.430;2022-07-29T09:58:44;100492.62;;;35.62;32.23
30714;BME280;17465;47.934;33.430;2022-07-29T10:01:27;100492.62;;;35.62;32.23
30714;BME280;17465;47.934;33.430;2022-07-29T10:03:51;100486.28;;;34.87;33.62
30714;BME280;17465;47.934;33.430;2022-07-29T10:06:32;100480.58;;;35.19;32.43
30714;BME280;17465;47.934;33.430;2022-07-29T10:08:55;100483.06;;;36.15;31.35
30714;BME280;17465;47.934;33.430;2022-07-29T10:11:30;100479.61;;;35.53;30.56
30714;BME280;17465;47.934;33.430;2022-07-29T10:14:06;100489.06;;;36.49;31.34
30714;BME280;17465;47.934;33.430;2022-07-29T10:16:43;100489.06;;;36.49;31.34
30714;BME280;17465;47.934;33.430;2022-07-29T10:19:17;100478.34;;;35.41;30.00
30714;BME280;17465;47.934;33.430;2022-07-29T10:21:49;100474.64;;;35.22;30.63
30714;BME280;17465;47.934;33.430;2022-07-29T10:24:47;100474.64;;;35.22;30.63
30714;BME280;17465;47.934;33.430;2022-07-29T10:27:21;100482.75;;;36.18;31.08
30714;BME280;17465;47.934;33.430;2022-07-29T10:29:54;100485.63;;;36.64;31.09
30714;BME280;17465;47.934;33.430;2022-07-29T10:44:22;100477.30;;;36.11;28.98
30714;BME280;17465;47.934;33.430;2022-07-29T10:46:55;100468.90;;;36.91;30.25
30714;BME280;17465;47.934;33.430;2022-07-29T10:49:38;100463.55;;;35.75;28.67
30714;BME280;17465;47.934;33.430;2022-07-29T10:52:53;100471.67;;;36.12;29.07
30714;BME280;17465;47.934;33.430;2022-07-29T10:55:37;100469.12;;;36.55;28.16
30714;BME280;17465;47.934;33.430;2022-07-29T10:58:19;100467.96;;;36.62;27.99
30714;BME280;17465;47.934;33.430;2022-07-29T11:00:52;100462.68;;;36.56;29.44
30714;BME280;17465;47.934;33.430;2022-07-29T11:03:47;100458.17;;;36.13;29.47
30714;BME280;17465;47.934;33.430;2022-07-29T11:06:19;100458.17;;;36.13;29.47
30714;BME280;17465;47.934;33.430;2022-07-29T11:15:14;100467.02;;;36.47;29.90
30714;BME280;17465;47.934;33.430;2022-07-29T11:20:51;100457.63;;;35.11;29.95
30714;BME280;17465;47.934;33.430;2022-07-29T11:23:25;100465.91;;;35.98;27.16
30714;BME280;17465;47.934;33.430;2022-07-29T11:31:39;100458.97;;;36.60;28.69
30714;BME280;17465;47.934;33.430;2022-07-29T11:34:28;100458.97;;;36.60;28.69
30714;BME280;17465;47.934;33.430;2022-07-29T11:45:14;100461.69;;;37.71;24.62
30714;BME280;17465;47.934;33.430;2022-07-29T11:47:51;100458.78;;;36.63;27.22
30714;BME280;17465;47.934;33.430;2022-07-29T11:50:37;100442.83;;;35.89;28.70
30714;BME280;17465;47.934;33.430;2022-07-29T11:53:13;100453.91;;;36.37;27.95
30714;BME280;17465;47.934;33.430;2022-07-29T11:56:08;100452.83;;;37.13;27.08
30714;BME280;17465;47.934;33.430;2022-07-29T11:58:39;100449.97;;;37.51;24.32
30714;BME280;17465;47.934;33.430;2022-07-29T12:01:15;100445.42;;;37.88;25.53
30714;BME280;17465;47.934;33.430;2022-07-29T12:04:01;100451.69;;;38.69;25.24
30714;BME280;17465;47.934;33.430;2022-07-29T12:06:25;100438.39;;;37.09;25.34
30714;BME280;17465;47.934;33.430;2022-07-29T12:08:57;100440.39;;;36.43;25.21
30714;BME280;17465;47.934;33.430;2022-07-29T12:11:37;100431.80;;;36.57;28.27
30714;BME280;17465;47.934;33.430;2022-07-29T12:14:09;100431.80;;;36.57;28.27
30714;BME280;17465;47.934;33.430;2022-07-29T12:16:43;100435.55;;;37.76;25.24
30714;BME280;17465;47.934;33.430;2022-07-29T12:19:16;100435.55;;;37.76;25.24
30714;BME280;17465;47.934;33.430;2022-07-29T12:21:52;100427.13;;;37.97;25.12
30714;BME280;17465;47.934;33.430;2022-07-29T12:24:25;100425.12;;;37.88;24.74
30714;BME280;17465;47.934;33.430;2022-07-29T12:26:59;100425.12;;;37.88;24.74
30714;BME280;17465;47.934;33.430;2022-07-29T12:29:32;100419.78;;;37.43;27.16
30714;BME280;17465;47.934;33.430;2022-07-29T12:32:04;100419.23;;;37.97;26.12
30714;BME280;17465;47.934;33.430;2022-07-29T12:34:37;100417.27;;;37.55;24.59
30714;BME280;17465;47.934;33.430;2022-07-29T12:37:09;100421.11;;;37.71;24.39
30714;BME280;17465;47.934;33.430;2022-07-29T12:39:41;100421.11;;;37.71;24.39
30714;BME280;17465;47.934;33.430;2022-07-29T12:42:16;100429.84;;;37.81;24.69
30714;BME280;17465;47.934;33.430;2022-07-29T12:44:54;100423.31;;;38.05;23.97
30714;BME280;17465;47.934;33.430;2022-07-29T12:47:23;100423.31;;;38.05;23.97
30714;BME280;17465;47.934;33.430;2022-07-29T12:50:13;100425.16;;;38.27;23.85
30714;BME280;17465;47.934;33.430;2022-07-29T12:52:45;100424.91;;;37.06;25.62
30714;BME280;17465;47.934;33.430;2022-07-29T12:58:07;100418.12;;;37.47;23.99
30714;BME280;17465;47.934;33.430;2022-07-29T13:00:39;100408.87;;;37.19;25.49
30714;BME280;17465;47.934;33.430;2022-07-29T13:03:10;100413.55;;;38.27;23.80
30714;BME280;17465;47.934;33.430;2022-07-29T13:05:43;100405.63;;;38.52;24.72
30714;BME280;17465;47.934;33.430;2022-07-29T13:10:54;100401.20;;;36.09;27.97
30714;BME280;17465;47.934;33.430;2022-07-29T13:13:26;100401.20;;;36.09;27.97
30714;BME280;17465;47.934;33.430;2022-07-29T13:16:09;100400.30;;;37.58;26.26
30714;BME280;17465;47.934;33.430;2022-07-29T13:18:47;100394.26;;;36.72;27.01
30714;BME280;17465;47.934;33.430;2022-07-29T13:21:16;100394.26;;;36.72;27.01
30714;BME280;17465;47.934;33.430;2022-07-29T13:23:48;100397.64;;;37.98;27.10
30714;BME280;17465;47.934;33.430;2022-07-29T13:26:34;100396.33;;;37.70;28.32
30714;BME280;17465;47.934;33.430;2022-07-29T13:29:03;100402.81;;;37.65;28.68
30714;BME280;17465;47.934;33.430;2022-07-29T13:31:35;100395.95;;;36.59;27.02
30714;BME280;17465;47.934;33.430;2022-07-29T13:34:11;100404.02;;;37.02;28.41
30714;BME280;17465;47.934;33.430;2022-07-29T13:36:43;100404.02;;;37.02;28.41
30714;BME280;17465;47.934;33.430;2022-07-29T13:39:14;100408.33;;;38.07;25.17
30714;BME280;17465;47.934;33.430;2022-07-29T13:41:49;100400.75;;;37.61;27.00
30714;BME280;17465;47.934;33.430;2022-07-29T13:44:20;100402.27;;;37.71;24.98
30714;BME280;17465;47.934;33.430;2022-07-29T13:49:56;100394.97;;;36.30;28.91
30714;BME280;17465;47.934;33.430;2022-07-29T13:52:27;100394.97;;;36.30;28.91
30714;BME280;17465;47.934;33.430;2022-07-29T13:54:58;100395.64;;;36.25;26.71
30714;BME280;17465;47.934;33.430;2022-07-29T13:57:46;100399.37;;;35.53;27.74
30714;BME280;17465;47.934;33.430;2022-07-29T14:00:22;100399.89;;;36.71;26.19
30714;BME280;17465;47.934;33.430;2022-07-29T14:03:33;100395.06;;;37.00;25.13
30714;BME280;17465;47.934;33.430;2022-07-29T14:09:50;100382.69;;;33.84;30.40
30714;BME280;17465;47.934;33.430;2022-07-29T14:12:32;100387.24;;;33.63;30.05
30714;BME280;17465;47.934;33.430;2022-07-29T14:15:19;100378.45;;;32.56;31.09
30714;BME280;17465;47.934;33.430;2022-07-29T14:24:52;100380.59;;;31.94;33.16
30714;BME280;17465;47.934;33.430;2022-07-29T14:27:24;100367.11;;;31.13;32.73
30714;BME280;17465;47.934;33.430;2022-07-29T14:29:56;100361.67;;;31.43;34.64
30714;BME280;17465;47.934;33.430;2022-07-29T14:32:29;100358.74;;;30.90;34.13
30714;BME280;17465;47.934;33.430;2022-07-29T14:35:00;100356.12;;;30.95;33.79
30714;BME280;17465;47.934;33.430;2022-07-29T14:37:31;100353.23;;;31.03;36.39
30714;BME280;17465;47.934;33.430;2022-07-29T14:40:05;100353.23;;;31.03;36.39
30714;BME280;17465;47.934;33.430;2022-07-29T14:42:39;100354.80;;;30.55;35.36
30714;BME280;17465;47.934;33.430;2022-07-29T14:45:10;100358.50;;;30.84;36.10
30714;BME280;17465;47.934;33.430;2022-07-29T14:47:41;100354.98;;;30.56;36.38
30714;BME280;17465;47.934;33.430;2022-07-29T14:50:22;100354.98;;;30.56;36.38